Time;durP1;ratioP1;P1;durP2;ratioP2;P2;SDS_P1;SDS_P2;PMS_P1;PMS_P2;Temp;Humidity;BMP_temperature;BMP_pressure;BME280_temperature;BME280_humidity;BME280_pressure;Samples;Min_cycle;Max_cycle;Signal;HPM_P1;HPM_P2
2023/06/28 00:00:12;;;;;;;0.30;0.30;;;;;;;;;;5048958;28;20417;-56
2023/06/28 00:03:04;;;;;;;0.80;0.52;;;;;;;;;;5064842;28;20407;-56
2023/06/28 00:05:33;;;;;;;0.30;0.30;;;;;;;;;;5065851;28;20508;-56
2023/06/28 00:08:05;;;;;;;0.52;0.52;;;;;;;;;;5064783;28;21125;-57
2023/06/28 00:10:32;;;;;;;0.70;0.50;;;;;;;;;;5062689;28;20440;-57
2023/06/28 00:12:59;;;;;;;0.40;0.40;;;;;;;;;;5065652;28;20882;-56
2023/06/28 00:15:26;;;;;;;0.50;0.50;;;;;;;;;;5066709;28;20524;-57
2023/06/28 00:17:54;;;;;;;1.73;0.90;;;;;;;;;;5065753;28;21149;-57
2023/06/28 00:20:24;;;;;;;0.70;0.70;;;;;;;;;;5069271;28;21031;-57
2023/06/28 00:22:52;;;;;;;0.40;0.40;;;;;;;;;;5067247;28;20420;-57
2023/06/28 00:25:19;;;;;;;0.40;0.40;;;;;;;;;;5068073;28;20528;-57
2023/06/28 00:27:49;;;;;;;0.60;0.52;;;;;;;;;;5063839;28;20443;-57
2023/06/28 00:30:20;;;;;;;0.20;0.20;;;;;;;;;;5053815;28;20430;-57
2023/06/28 00:32:47;;;;;;;0.60;0.60;;;;;;;;;;5067694;28;20493;-57
2023/06/28 00:35:17;;;;;;;0.40;0.40;;;;;;;;;;5064799;28;20529;-56
2023/06/28 00:37:49;;;;;;;1.00;0.50;;;;;;;;;;5068226;28;21075;-57
2023/06/28 00:40:16;;;;;;;0.35;0.35;;;;;;;;;;5063599;28;20514;-57
2023/06/28 00:42:43;;;;;;;1.90;0.70;;;;;;;;;;5068189;28;20449;-57
2023/06/28 00:45:13;;;;;;;1.17;0.50;;;;;;;;;;5067437;28;20481;-57
2023/06/28 00:47:43;;;;;;;0.90;0.40;;;;;;;;;;5063083;28;20454;-57
2023/06/28 00:50:10;;;;;;;0.35;0.35;;;;;;;;;;5046821;28;20884;-57
2023/06/28 00:52:44;;;;;;;0.90;0.60;;;;;;;;;;5063757;28;20434;-57
2023/06/28 00:55:11;;;;;;;2.13;0.47;;;;;;;;;;5066130;28;20498;-57
2023/06/28 00:57:46;;;;;;;0.50;0.50;;;;;;;;;;5065053;28;22712;-57
2023/06/28 01:00:13;;;;;;;0.35;0.30;;;;;;;;;;5058114;28;20895;-57
2023/06/28 01:02:47;;;;;;;0.60;0.60;;;;;;;;;;5064124;28;20432;-56
2023/06/28 01:05:16;;;;;;;0.60;0.60;;;;;;;;;;5068661;28;20426;-56
2023/06/28 01:07:44;;;;;;;1.02;0.80;;;;;;;;;;5069404;28;22858;-57
2023/06/28 01:10:12;;;;;;;0.70;0.70;;;;;;;;;;5061368;28;20423;-57
2023/06/28 01:12:40;;;;;;;0.60;0.32;;;;;;;;;;5061895;28;20435;-57
2023/06/28 01:15:07;;;;;;;0.60;0.60;;;;;;;;;;5065048;28;20518;-57
2023/06/28 01:17:37;;;;;;;1.40;0.50;;;;;;;;;;5062621;28;21171;-57
2023/06/28 01:20:05;;;;;;;0.40;0.40;;;;;;;;;;5063870;28;20461;-57
2023/06/28 01:22:40;;;;;;;0.47;0.47;;;;;;;;;;5066294;28;20427;-56
2023/06/28 01:25:09;;;;;;;0.40;0.40;;;;;;;;;;5063353;28;20443;-57
2023/06/28 01:27:37;;;;;;;0.40;0.40;;;;;;;;;;5063563;28;20753;-57
2023/06/28 01:30:05;;;;;;;1.40;0.50;;;;;;;;;;5064187;28;20457;-56
2023/06/28 01:32:32;;;;;;;0.30;0.30;;;;;;;;;;5065465;28;20436;-56
2023/06/28 01:34:59;;;;;;;0.50;0.50;;;;;;;;;;5067552;28;20422;-57
2023/06/28 01:37:27;;;;;;;0.50;0.50;;;;;;;;;;5062502;28;20817;-57
2023/06/28 01:39:54;;;;;;;0.60;0.60;;;;;;;;;;5065378;28;20428;-56
2023/06/28 01:42:21;;;;;;;0.70;0.57;;;;;;;;;;5060545;28;20493;-57
2023/06/28 01:44:48;;;;;;;0.35;0.35;;;;;;;;;;5061782;28;20429;-57
2023/06/28 01:47:16;;;;;;;0.53;0.53;;;;;;;;;;5063682;28;20571;-57
2023/06/28 01:49:46;;;;;;;0.60;0.60;;;;;;;;;;5062798;28;20434;-57
2023/06/28 01:52:14;;;;;;;0.35;0.35;;;;;;;;;;5064672;28;20461;-59
2023/06/28 01:54:41;;;;;;;0.52;0.52;;;;;;;;;;5065960;28;20525;-57
2023/06/28 01:57:08;;;;;;;0.40;0.40;;;;;;;;;;5066196;28;20457;-57
2023/06/28 01:59:35;;;;;;;0.30;0.30;;;;;;;;;;5051232;28;20423;-57
2023/06/28 02:02:03;;;;;;;1.40;0.70;;;;;;;;;;5065682;28;20508;-57
2023/06/28 02:04:30;;;;;;;0.50;0.50;;;;;;;;;;5066043;28;20530;-58
2023/06/28 02:06:57;;;;;;;1.20;0.70;;;;;;;;;;5067102;28;20445;-58
2023/06/28 02:09:24;;;;;;;0.60;0.60;;;;;;;;;;5067292;28;20461;-59
2023/06/28 02:11:51;;;;;;;0.70;0.45;;;;;;;;;;5065666;28;20429;-58
2023/06/28 02:14:18;;;;;;;0.60;0.60;;;;;;;;;;5063395;28;20438;-57
2023/06/28 02:16:45;;;;;;;0.52;0.52;;;;;;;;;;5053074;28;20447;-57
2023/06/28 02:19:15;;;;;;;0.90;0.90;;;;;;;;;;5069854;28;20448;-57
2023/06/28 02:21:42;;;;;;;0.50;0.50;;;;;;;;;;5065777;28;20422;-57
2023/06/28 02:24:13;;;;;;;0.60;0.60;;;;;;;;;;5063500;28;21136;-57
2023/06/28 02:26:40;;;;;;;0.38;0.38;;;;;;;;;;5069969;28;20437;-57
2023/06/28 02:29:08;;;;;;;0.60;0.57;;;;;;;;;;5068132;28;20493;-57
2023/06/28 02:31:35;;;;;;;5.47;0.73;;;;;;;;;;5068197;28;20435;-57
2023/06/28 02:34:02;;;;;;;0.50;0.40;;;;;;;;;;5065208;28;20506;-57
2023/06/28 02:36:29;;;;;;;0.50;0.50;;;;;;;;;;5067018;28;20520;-57
2023/06/28 02:38:57;;;;;;;0.95;0.75;;;;;;;;;;5068626;28;20854;-57
2023/06/28 02:41:24;;;;;;;0.65;0.65;;;;;;;;;;5065363;28;20427;-57
2023/06/28 02:43:51;;;;;;;1.00;0.60;;;;;;;;;;5066398;28;20493;-57
2023/06/28 02:46:23;;;;;;;0.70;0.40;;;;;;;;;;5065978;28;20470;-58
2023/06/28 02:48:50;;;;;;;0.75;0.60;;;;;;;;;;5068383;28;20430;-57
2023/06/28 02:51:17;;;;;;;0.50;0.50;;;;;;;;;;5066795;28;20510;-58
2023/06/28 02:53:45;;;;;;;0.32;0.32;;;;;;;;;;5058172;28;20455;-57
2023/06/28 02:56:15;;;;;;;0.40;0.40;;;;;;;;;;5064996;28;20431;-57
2023/06/28 02:58:42;;;;;;;0.60;0.60;;;;;;;;;;5065772;28;20465;-57
2023/06/28 03:01:09;;;;;;;0.60;0.60;;;;;;;;;;5068715;28;20512;-57
2023/06/28 03:03:37;;;;;;;0.80;0.80;;;;;;;;;;5065514;28;20517;-57
2023/06/28 03:06:05;;;;;;;0.40;0.40;;;;;;;;;;5064481;28;20429;-57
2023/06/28 03:08:32;;;;;;;0.83;0.63;;;;;;;;;;5064851;28;20512;-57
2023/06/28 03:11:00;;;;;;;0.50;0.50;;;;;;;;;;5067655;28;20437;-57
2023/06/28 03:13:27;;;;;;;0.45;0.45;;;;;;;;;;5065381;28;20514;-57
2023/06/28 03:15:54;;;;;;;1.40;0.65;;;;;;;;;;5068162;28;20514;-57
2023/06/28 03:18:21;;;;;;;0.47;0.40;;;;;;;;;;5067585;28;20953;-58
2023/06/28 03:20:48;;;;;;;0.80;0.40;;;;;;;;;;5072253;28;20485;-58
2023/06/28 03:23:15;;;;;;;0.55;0.38;;;;;;;;;;5065526;28;20471;-58
2023/06/28 03:25:46;;;;;;;0.50;0.50;;;;;;;;;;5067782;28;20423;-58
2023/06/28 03:28:16;;;;;;;0.40;0.40;;;;;;;;;;5065914;28;20430;-58
2023/06/28 03:30:43;;;;;;;0.30;0.30;;;;;;;;;;5067496;28;20491;-58
2023/06/28 03:33:11;;;;;;;0.55;0.50;;;;;;;;;;5067176;28;20490;-58
2023/06/28 03:35:38;;;;;;;0.50;0.50;;;;;;;;;;5063958;28;20464;-58
2023/06/28 03:38:05;;;;;;;0.50;0.50;;;;;;;;;;5066379;28;20426;-58
2023/06/28 03:40:32;;;;;;;1.45;0.70;;;;;;;;;;5067020;28;20436;-58
2023/06/28 03:42:59;;;;;;;0.30;0.30;;;;;;;;;;5069744;28;20505;-58
2023/06/28 03:45:28;;;;;;;0.43;0.43;;;;;;;;;;5063070;28;20502;-58
2023/06/28 03:47:56;;;;;;;0.30;0.30;;;;;;;;;;5064372;28;20796;-58
2023/06/28 03:50:25;;;;;;;0.30;0.30;;;;;;;;;;5063242;28;20510;-59
2023/06/28 03:52:55;;;;;;;0.50;0.50;;;;;;;;;;5066055;28;20507;-58
2023/06/28 03:55:25;;;;;;;0.63;0.47;;;;;;;;;;5066130;28;20527;-58
2023/06/28 03:57:53;;;;;;;1.00;0.82;;;;;;;;;;5068037;28;20428;-58
2023/06/28 04:00:20;;;;;;;0.52;0.52;;;;;;;;;;5064875;28;20429;-58
2023/06/28 04:02:47;;;;;;;0.47;0.47;;;;;;;;;;5067678;28;20441;-58
2023/06/28 04:05:15;;;;;;;0.40;0.40;;;;;;;;;;5069300;28;20444;-55
2023/06/28 04:07:43;;;;;;;0.75;0.68;;;;;;;;;;5067059;28;20432;-56
2023/06/28 04:10:10;;;;;;;0.30;0.30;;;;;;;;;;5065490;28;20790;-55
2023/06/28 04:12:41;;;;;;;1.37;0.33;;;;;;;;;;5063144;28;20941;-57
2023/06/28 04:15:11;;;;;;;0.20;0.20;;;;;;;;;;5067235;28;20428;-57
2023/06/28 04:17:38;;;;;;;0.50;0.50;;;;;;;;;;5051795;28;20458;-57
2023/06/28 04:20:06;;;;;;;0.40;0.40;;;;;;;;;;5064938;28;21044;-57
2023/06/28 04:22:34;;;;;;;0.40;0.40;;;;;;;;;;5063717;28;20436;-56
2023/06/28 04:25:02;;;;;;;0.60;0.60;;;;;;;;;;5065829;28;20477;-57
2023/06/28 04:27:29;;;;;;;0.63;0.63;;;;;;;;;;5064560;28;20434;-56
2023/06/28 04:29:56;;;;;;;1.10;0.50;;;;;;;;;;5062519;28;20455;-56
2023/06/28 04:32:27;;;;;;;0.80;0.40;;;;;;;;;;5049409;28;20512;-56
2023/06/28 04:34:55;;;;;;;1.50;0.60;;;;;;;;;;5065568;28;20433;-56
2023/06/28 04:37:31;;;;;;;0.30;0.30;;;;;;;;;;5064390;28;20453;-57
2023/06/28 04:40:04;;;;;;;0.30;0.30;;;;;;;;;;5067345;28;20870;-56
2023/06/28 04:42:32;;;;;;;0.70;0.35;;;;;;;;;;5067771;28;20423;-56
2023/06/28 04:44:59;;;;;;;0.43;0.43;;;;;;;;;;5066031;28;20429;-57
2023/06/28 04:47:27;;;;;;;0.55;0.55;;;;;;;;;;5065422;28;20515;-56
2023/06/28 04:49:55;;;;;;;0.30;0.30;;;;;;;;;;5068134;28;20434;-57
2023/06/28 04:52:23;;;;;;;1.60;0.60;;;;;;;;;;5067413;28;20435;-56
2023/06/28 04:54:52;;;;;;;0.60;0.60;;;;;;;;;;5047502;28;20547;-56
2023/06/28 04:57:20;;;;;;;0.50;0.50;;;;;;;;;;5061115;28;20793;-56
2023/06/28 04:59:48;;;;;;;0.45;0.45;;;;;;;;;;5065969;28;20870;-56
2023/06/28 05:02:15;;;;;;;0.30;0.30;;;;;;;;;;5064347;28;20466;-56
2023/06/28 05:04:42;;;;;;;0.32;0.32;;;;;;;;;;5065971;28;20426;-56
2023/06/28 05:07:10;;;;;;;0.90;0.68;;;;;;;;;;5066858;28;20477;-57
2023/06/28 05:09:38;;;;;;;0.45;0.43;;;;;;;;;;5066408;28;20801;-57
2023/06/28 05:12:06;;;;;;;0.80;0.50;;;;;;;;;;5060719;28;20442;-57
2023/06/28 05:14:33;;;;;;;1.10;0.50;;;;;;;;;;5065530;28;20443;-57
2023/06/28 05:17:00;;;;;;;0.38;0.38;;;;;;;;;;5064450;28;20503;-56
2023/06/28 05:19:30;;;;;;;1.10;0.63;;;;;;;;;;5064077;28;20530;-56
2023/06/28 05:21:57;;;;;;;1.20;0.50;;;;;;;;;;5064691;28;20524;-56
2023/06/28 05:24:24;;;;;;;0.60;0.60;;;;;;;;;;5064787;28;21214;-57
2023/06/28 05:26:52;;;;;;;2.60;0.40;;;;;;;;;;5069218;28;20494;-57
2023/06/28 05:29:19;;;;;;;0.55;0.45;;;;;;;;;;5058865;28;20422;-57
2023/06/28 05:31:46;;;;;;;0.98;0.75;;;;;;;;;;5063738;28;20439;-58
2023/06/28 05:34:15;;;;;;;0.70;0.47;;;;;;;;;;5065571;28;20988;-58
2023/06/28 05:36:42;;;;;;;1.53;0.60;;;;;;;;;;5062174;28;20435;-59
2023/06/28 05:39:11;;;;;;;0.50;0.50;;;;;;;;;;5064206;28;20422;-58
2023/06/28 05:41:39;;;;;;;1.63;0.40;;;;;;;;;;5063274;28;20431;-58
2023/06/28 05:44:09;;;;;;;0.47;0.47;;;;;;;;;;5064568;28;20426;-58
2023/06/28 05:46:37;;;;;;;0.50;0.50;;;;;;;;;;5064639;28;20975;-59
2023/06/28 05:49:10;;;;;;;0.68;0.68;;;;;;;;;;5067090;28;20467;-58
2023/06/28 05:51:38;;;;;;;0.50;0.50;;;;;;;;;;5063674;28;20485;-58
2023/06/28 05:54:05;;;;;;;0.50;0.50;;;;;;;;;;5064485;28;20436;-57
2023/06/28 05:56:33;;;;;;;0.80;0.52;;;;;;;;;;5066172;28;20439;-57
2023/06/28 05:59:01;;;;;;;3.03;0.50;;;;;;;;;;5062760;28;20481;-58
2023/06/28 06:01:28;;;;;;;0.30;0.30;;;;;;;;;;5064225;28;20549;-57
2023/06/28 06:03:55;;;;;;;0.60;0.40;;;;;;;;;;5066549;28;20428;-57
2023/06/28 06:06:23;;;;;;;0.50;0.50;;;;;;;;;;5063498;28;21042;-57
2023/06/28 06:08:50;;;;;;;0.20;0.20;;;;;;;;;;5057548;28;21565;-57
2023/06/28 06:11:18;;;;;;;0.40;0.40;;;;;;;;;;5061459;28;20437;-57
2023/06/28 06:13:45;;;;;;;1.40;0.55;;;;;;;;;;5062232;28;20441;-58
2023/06/28 06:16:12;;;;;;;0.40;0.40;;;;;;;;;;5059288;28;20434;-58
2023/06/28 06:18:42;;;;;;;0.47;0.47;;;;;;;;;;5061795;28;20915;-58
2023/06/28 06:21:11;;;;;;;0.30;0.30;;;;;;;;;;5062438;28;20506;-58
2023/06/28 06:23:38;;;;;;;2.10;0.55;;;;;;;;;;5060914;28;20915;-58
2023/06/28 06:26:06;;;;;;;0.47;0.47;;;;;;;;;;5064399;28;21032;-58
2023/06/28 06:28:36;;;;;;;1.00;0.40;;;;;;;;;;5061519;28;20431;-58
2023/06/28 06:31:03;;;;;;;2.80;0.70;;;;;;;;;;5066066;28;20431;-58
2023/06/28 06:33:31;;;;;;;0.27;0.27;;;;;;;;;;5063506;28;20422;-58
2023/06/28 06:35:58;;;;;;;0.63;0.50;;;;;;;;;;5061218;28;20438;-58
2023/06/28 06:38:25;;;;;;;1.25;0.98;;;;;;;;;;5064149;28;20515;-58
2023/06/28 06:40:52;;;;;;;0.50;0.50;;;;;;;;;;5064415;28;21166;-58
2023/06/28 06:43:19;;;;;;;0.30;0.30;;;;;;;;;;5069455;28;20427;-57
2023/06/28 06:45:47;;;;;;;0.98;0.50;;;;;;;;;;5065714;28;21430;-58
2023/06/28 06:48:14;;;;;;;0.60;0.40;;;;;;;;;;5035787;28;20912;-58
2023/06/28 06:50:41;;;;;;;3.75;0.50;;;;;;;;;;5065089;28;20435;-58
2023/06/28 06:53:09;;;;;;;0.40;0.40;;;;;;;;;;5067541;28;20471;-58
2023/06/28 06:55:36;;;;;;;0.70;0.70;;;;;;;;;;5067384;28;20434;-58
2023/06/28 06:58:03;;;;;;;1.30;0.70;;;;;;;;;;5066560;28;20441;-58
2023/06/28 07:00:32;;;;;;;1.20;0.40;;;;;;;;;;5055831;28;20448;-58
2023/06/28 07:02:59;;;;;;;0.43;0.43;;;;;;;;;;5065705;28;20516;-59
2023/06/28 07:05:27;;;;;;;0.65;0.45;;;;;;;;;;5067905;28;20555;-58
2023/06/28 07:07:58;;;;;;;2.33;0.68;;;;;;;;;;5063355;28;20733;-59
2023/06/28 07:10:25;;;;;;;1.13;0.68;;;;;;;;;;5068018;28;20522;-58
2023/06/28 07:12:53;;;;;;;0.50;0.50;;;;;;;;;;5064208;28;20438;-58
2023/06/28 07:15:21;;;;;;;0.43;0.43;;;;;;;;;;5066728;28;20980;-58
2023/06/28 07:17:48;;;;;;;0.40;0.40;;;;;;;;;;5065659;28;20809;-58
2023/06/28 07:20:17;;;;;;;0.50;0.50;;;;;;;;;;5063479;28;20431;-58
2023/06/28 07:22:47;;;;;;;1.85;0.52;;;;;;;;;;5069533;28;20491;-58
2023/06/28 07:25:14;;;;;;;1.10;0.38;;;;;;;;;;5066068;28;20516;-58
2023/06/28 07:27:41;;;;;;;0.47;0.47;;;;;;;;;;5065662;28;20426;-58
2023/06/28 07:30:10;;;;;;;0.40;0.40;;;;;;;;;;5064868;28;20427;-58
2023/06/28 07:32:37;;;;;;;0.33;0.30;;;;;;;;;;5061141;28;20431;-58
2023/06/28 07:35:05;;;;;;;0.57;0.50;;;;;;;;;;5065064;28;20439;-57
2023/06/28 07:37:33;;;;;;;1.70;1.40;;;;;;;;;;5066019;28;21564;-58
2023/06/28 07:40:03;;;;;;;0.50;0.50;;;;;;;;;;5052162;28;20431;-58
2023/06/28 07:42:32;;;;;;;2.75;0.57;;;;;;;;;;5063541;28;20419;-58
2023/06/28 07:44:59;;;;;;;1.38;0.50;;;;;;;;;;5058750;28;20430;-58
2023/06/28 07:47:27;;;;;;;1.70;0.80;;;;;;;;;;5060757;28;20436;-58
2023/06/28 07:49:54;;;;;;;3.45;0.70;;;;;;;;;;5062053;28;20419;-59
2023/06/28 07:52:21;;;;;;;0.40;0.40;;;;;;;;;;5064667;28;20567;-57
2023/06/28 07:54:51;;;;;;;0.50;0.40;;;;;;;;;;5063457;28;20438;-58
2023/06/28 07:57:18;;;;;;;0.40;0.40;;;;;;;;;;5063902;28;20427;-58
2023/06/28 07:59:47;;;;;;;2.50;0.60;;;;;;;;;;5062506;28;20580;-58
2023/06/28 08:02:15;;;;;;;0.40;0.40;;;;;;;;;;5065279;28;22334;-56
2023/06/28 08:04:42;;;;;;;0.30;0.30;;;;;;;;;;5066860;28;20926;-57
2023/06/28 08:07:09;;;;;;;0.80;0.53;;;;;;;;;;5064176;28;20424;-57
2023/06/28 08:09:36;;;;;;;0.77;0.77;;;;;;;;;;5058928;28;20433;-57
2023/06/28 08:12:04;;;;;;;0.60;0.40;;;;;;;;;;5060704;28;20435;-57
2023/06/28 08:14:31;;;;;;;0.85;0.55;;;;;;;;;;5063473;28;20435;-58
2023/06/28 08:16:58;;;;;;;0.60;0.50;;;;;;;;;;5060295;28;20431;-59
2023/06/28 08:19:25;;;;;;;0.40;0.40;;;;;;;;;;5066178;28;20597;-56
2023/06/28 08:21:53;;;;;;;0.80;0.75;;;;;;;;;;5062312;28;20431;-57
2023/06/28 08:24:20;;;;;;;0.40;0.40;;;;;;;;;;5062110;28;21077;-56
2023/06/28 08:26:47;;;;;;;0.40;0.40;;;;;;;;;;5062125;28;20434;-57
2023/06/28 08:29:16;;;;;;;4.80;0.70;;;;;;;;;;5064042;28;20497;-57
2023/06/28 08:31:45;;;;;;;0.40;0.40;;;;;;;;;;5061086;28;20431;-57
2023/06/28 08:34:12;;;;;;;4.18;1.13;;;;;;;;;;5061120;28;21095;-57
2023/06/28 08:36:39;;;;;;;0.70;0.40;;;;;;;;;;5059587;28;20439;-57
2023/06/28 08:39:08;;;;;;;0.40;0.40;;;;;;;;;;5062806;28;20435;-57
2023/06/28 08:41:35;;;;;;;1.70;0.73;;;;;;;;;;5063638;28;20454;-57
2023/06/28 08:44:05;;;;;;;1.40;0.60;;;;;;;;;;5062021;28;20439;-58
2023/06/28 08:46:34;;;;;;;1.15;0.75;;;;;;;;;;5061378;28;20433;-57
2023/06/28 08:49:03;;;;;;;1.10;0.38;;;;;;;;;;5063864;28;20430;-57
2023/06/28 08:51:32;;;;;;;0.40;0.40;;;;;;;;;;5061227;28;20431;-57
2023/06/28 08:54:00;;;;;;;0.80;0.60;;;;;;;;;;5063884;28;20790;-57
2023/06/28 08:56:27;;;;;;;0.85;0.60;;;;;;;;;;5061442;28;20441;-57
2023/06/28 08:58:57;;;;;;;0.60;0.60;;;;;;;;;;5061638;28;20953;-57
2023/06/28 09:01:24;;;;;;;0.57;0.57;;;;;;;;;;5063035;28;20455;-57
2023/06/28 09:03:56;;;;;;;0.38;0.38;;;;;;;;;;5063137;28;20493;-57
2023/06/28 09:06:28;;;;;;;0.70;0.50;;;;;;;;;;5063471;28;20494;-58
2023/06/28 09:08:58;;;;;;;1.10;0.77;;;;;;;;;;5059957;28;20994;-60
2023/06/28 09:11:27;;;;;;;5.23;0.63;;;;;;;;;;5058097;28;20466;-58
2023/06/28 09:13:56;;;;;;;0.63;0.60;;;;;;;;;;5061705;28;21420;-57
2023/06/28 09:16:26;;;;;;;0.70;0.40;;;;;;;;;;5064465;28;20442;-58
2023/06/28 09:18:53;;;;;;;0.70;0.70;;;;;;;;;;5056820;28;20462;-57
2023/06/28 09:21:28;;;;;;;2.00;0.40;;;;;;;;;;5067690;28;20426;-57
2023/06/28 09:24:00;;;;;;;1.58;0.63;;;;;;;;;;5063202;28;20430;-57
2023/06/28 09:26:31;;;;;;;0.50;0.50;;;;;;;;;;5061820;28;20512;-58
2023/06/28 09:29:00;;;;;;;0.50;0.50;;;;;;;;;;5064199;28;20514;-58
2023/06/28 09:31:31;;;;;;;0.50;0.50;;;;;;;;;;5060670;28;20476;-59
2023/06/28 09:33:59;;;;;;;0.50;0.50;;;;;;;;;;5061180;28;20554;-58
2023/06/28 09:36:26;;;;;;;1.40;0.47;;;;;;;;;;5063971;28;21749;-58
2023/06/28 09:38:56;;;;;;;0.52;0.52;;;;;;;;;;5060402;28;20499;-57
2023/06/28 09:41:37;;;;;;;0.60;0.60;;;;;;;;;;5059136;28;20424;-58
2023/06/28 09:44:04;;;;;;;0.80;0.70;;;;;;;;;;5062501;28;20436;-58
2023/06/28 09:46:35;;;;;;;0.32;0.32;;;;;;;;;;5062063;28;20427;-57
2023/06/28 09:49:02;;;;;;;0.50;0.50;;;;;;;;;;5061077;28;20524;-58
2023/06/28 09:51:29;;;;;;;0.40;0.40;;;;;;;;;;5066237;28;23163;-57
2023/06/28 09:53:58;;;;;;;0.40;0.40;;;;;;;;;;5065648;28;20490;-57
2023/06/28 09:56:38;;;;;;;0.55;0.55;;;;;;;;;;5065278;28;20450;-58
2023/06/28 09:59:09;;;;;;;0.90;0.52;;;;;;;;;;5063378;28;20465;-58
2023/06/28 10:01:52;;;;;;;0.80;0.60;;;;;;;;;;5064693;28;20779;-58
2023/06/28 10:04:20;;;;;;;0.50;0.50;;;;;;;;;;5066263;28;20488;-57
2023/06/28 10:06:48;;;;;;;1.20;0.50;;;;;;;;;;5060245;28;20459;-58
2023/06/28 10:09:16;;;;;;;0.70;0.60;;;;;;;;;;5049619;28;23155;-58
2023/06/28 10:11:45;;;;;;;0.40;0.40;;;;;;;;;;5065434;28;20525;-57
2023/06/28 10:14:13;;;;;;;0.90;0.70;;;;;;;;;;5067338;28;20551;-57
2023/06/28 10:16:41;;;;;;;2.97;0.63;;;;;;;;;;5068088;28;20460;-57
2023/06/28 10:19:10;;;;;;;0.47;0.47;;;;;;;;;;5070074;28;20433;-57
2023/06/28 10:21:39;;;;;;;0.65;0.60;;;;;;;;;;5070568;28;20445;-58
2023/06/28 10:24:06;;;;;;;0.40;0.40;;;;;;;;;;5066444;28;20837;-58
2023/06/28 10:26:34;;;;;;;1.00;0.40;;;;;;;;;;5068452;28;20426;-58
2023/06/28 10:29:02;;;;;;;0.50;0.50;;;;;;;;;;5066882;28;20537;-58
2023/06/28 10:31:36;;;;;;;0.53;0.53;;;;;;;;;;5067011;28;21351;-57
2023/06/28 10:34:04;;;;;;;2.80;0.77;;;;;;;;;;5068493;28;20440;-57
2023/06/28 10:36:31;;;;;;;2.10;0.60;;;;;;;;;;5068602;28;20871;-57
2023/06/28 10:38:58;;;;;;;0.70;0.70;;;;;;;;;;5061200;28;21137;-58
2023/06/28 10:41:26;;;;;;;0.70;0.70;;;;;;;;;;5069656;28;20437;-57
2023/06/28 10:44:03;;;;;;;0.50;0.50;;;;;;;;;;5066436;28;20423;-58
2023/06/28 10:46:33;;;;;;;0.52;0.52;;;;;;;;;;5054415;28;20561;-58
2023/06/28 10:49:03;;;;;;;0.40;0.40;;;;;;;;;;5064663;28;20448;-58
2023/06/28 10:51:31;;;;;;;0.50;0.50;;;;;;;;;;5065506;28;20427;-58
2023/06/28 10:54:14;;;;;;;1.25;0.60;;;;;;;;;;5065129;28;20427;-58
2023/06/28 10:56:48;;;;;;;1.10;1.00;;;;;;;;;;5050712;28;20431;-58
2023/06/28 10:59:16;;;;;;;0.40;0.40;;;;;;;;;;5068652;28;20459;-58
2023/06/28 11:01:49;;;;;;;3.10;0.40;;;;;;;;;;5062640;28;21065;-58
2023/06/28 11:04:22;;;;;;;1.75;0.70;;;;;;;;;;5063484;28;20430;-58
2023/06/28 11:07:09;;;;;;;0.70;0.57;;;;;;;;;;5068080;28;20451;-57
2023/06/28 11:09:39;;;;;;;0.50;0.50;;;;;;;;;;5067905;28;20435;-57
2023/06/28 11:12:13;;;;;;;0.60;0.60;;;;;;;;;;5070256;28;20433;-58
2023/06/28 11:14:43;;;;;;;1.00;0.60;;;;;;;;;;5068766;28;20439;-57
2023/06/28 11:17:14;;;;;;;1.60;0.80;;;;;;;;;;5064116;28;20891;-57
2023/06/28 11:19:42;;;;;;;0.88;0.65;;;;;;;;;;5065532;28;20439;-57
2023/06/28 11:22:09;;;;;;;0.70;0.60;;;;;;;;;;5064868;28;21012;-57
2023/06/28 11:24:40;;;;;;;0.90;0.70;;;;;;;;;;5066310;28;20439;-58
2023/06/28 11:27:15;;;;;;;0.80;0.80;;;;;;;;;;5047317;28;20497;-57
2023/06/28 11:29:58;;;;;;;1.10;0.52;;;;;;;;;;5063257;28;21335;-57
2023/06/28 11:32:31;;;;;;;0.70;0.70;;;;;;;;;;5070081;28;21634;-57
2023/06/28 11:35:02;;;;;;;0.70;0.70;;;;;;;;;;5065837;28;20436;-57
2023/06/28 11:37:30;;;;;;;2.20;0.80;;;;;;;;;;5067153;28;20518;-57
2023/06/28 11:40:03;;;;;;;1.48;0.63;;;;;;;;;;5062952;28;20446;-57
2023/06/28 11:42:32;;;;;;;0.52;0.52;;;;;;;;;;5053367;28;20513;-57
2023/06/28 11:44:59;;;;;;;0.70;0.70;;;;;;;;;;5062683;28;20430;-57
2023/06/28 11:47:27;;;;;;;0.60;0.60;;;;;;;;;;5065229;28;20992;-58
2023/06/28 11:49:56;;;;;;;0.80;0.70;;;;;;;;;;5063507;28;20442;-58
2023/06/28 11:52:24;;;;;;;1.10;1.00;;;;;;;;;;5059098;28;20487;-58
2023/06/28 11:54:52;;;;;;;0.52;0.52;;;;;;;;;;5064375;28;20541;-58
2023/06/28 11:57:19;;;;;;;1.70;0.50;;;;;;;;;;5067260;28;20453;-57
2023/06/28 11:59:50;;;;;;;0.90;0.67;;;;;;;;;;5064207;28;20431;-57
2023/06/28 12:02:17;;;;;;;0.50;0.50;;;;;;;;;;5062486;28;20455;-57
2023/06/28 12:04:57;;;;;;;7.20;0.90;;;;;;;;;;5048736;28;22963;-57
2023/06/28 12:07:24;;;;;;;2.20;0.73;;;;;;;;;;5064911;28;20441;-58
2023/06/28 12:09:57;;;;;;;0.90;0.70;;;;;;;;;;5065210;28;20871;-58
2023/06/28 12:12:35;;;;;;;0.60;0.60;;;;;;;;;;5065633;28;20431;-58
2023/06/28 12:15:06;;;;;;;0.70;0.70;;;;;;;;;;5062789;28;20918;-58
2023/06/28 12:17:40;;;;;;;1.23;1.00;;;;;;;;;;5050742;28;20530;-58
2023/06/28 12:20:11;;;;;;;3.80;0.50;;;;;;;;;;5065777;28;20938;-58
2023/06/28 12:22:40;;;;;;;0.70;0.70;;;;;;;;;;5063836;28;20480;-58
2023/06/28 12:25:12;;;;;;;0.50;0.50;;;;;;;;;;5065765;28;20512;-58
2023/06/28 12:27:40;;;;;;;0.50;0.50;;;;;;;;;;5063544;28;20440;-57
2023/06/28 12:30:16;;;;;;;0.65;0.60;;;;;;;;;;5064923;28;20435;-58
2023/06/28 12:32:45;;;;;;;2.75;0.73;;;;;;;;;;5064165;28;20554;-58
2023/06/28 12:35:23;;;;;;;0.60;0.60;;;;;;;;;;5059547;28;20975;-57
2023/06/28 12:38:03;;;;;;;0.63;0.63;;;;;;;;;;5078113;28;20428;-57
2023/06/28 12:40:33;;;;;;;0.50;0.50;;;;;;;;;;5106339;28;20516;-57
2023/06/28 12:43:09;;;;;;;0.60;0.60;;;;;;;;;;5077959;28;20428;-58
2023/06/28 12:45:47;;;;;;;0.75;0.70;;;;;;;;;;5079703;28;20425;-58
2023/06/28 12:48:16;;;;;;;0.50;0.50;;;;;;;;;;5090387;28;20434;-58
2023/06/28 12:50:47;;;;;;;0.50;0.50;;;;;;;;;;5089954;28;20828;-58
2023/06/28 12:53:15;;;;;;;0.60;0.60;;;;;;;;;;5088534;28;20912;-57
2023/06/28 12:55:46;;;;;;;0.90;0.73;;;;;;;;;;5057169;28;20523;-57
2023/06/28 12:58:13;;;;;;;0.53;0.53;;;;;;;;;;5052077;28;20544;-58
2023/06/28 13:00:44;;;;;;;0.70;0.70;;;;;;;;;;5059372;28;20450;-57
2023/06/28 13:03:13;;;;;;;1.10;0.70;;;;;;;;;;5054212;28;20439;-58
2023/06/28 13:05:44;;;;;;;0.65;0.65;;;;;;;;;;5076141;28;20427;-58
2023/06/28 13:08:15;;;;;;;1.40;0.80;;;;;;;;;;5081159;28;20904;-58
2023/06/28 13:10:45;;;;;;;0.68;0.68;;;;;;;;;;5077819;28;20431;-57
2023/06/28 13:13:15;;;;;;;1.60;0.57;;;;;;;;;;5072526;28;20920;-57
2023/06/28 13:15:43;;;;;;;0.60;0.60;;;;;;;;;;5083750;28;20486;-58
2023/06/28 13:18:10;;;;;;;0.90;0.60;;;;;;;;;;5077052;28;20935;-58
2023/06/28 13:20:40;;;;;;;0.57;0.57;;;;;;;;;;5088760;28;20503;-57
2023/06/28 13:23:08;;;;;;;0.33;0.33;;;;;;;;;;5093935;28;20909;-58
2023/06/28 13:25:35;;;;;;;0.60;0.60;;;;;;;;;;5093587;28;20450;-57
2023/06/28 13:28:02;;;;;;;1.20;0.70;;;;;;;;;;5081306;28;20420;-58
2023/06/28 13:30:29;;;;;;;0.40;0.40;;;;;;;;;;5091189;28;20497;-57
2023/06/28 13:32:58;;;;;;;0.70;0.70;;;;;;;;;;5086622;28;20426;-58
2023/06/28 13:35:25;;;;;;;0.53;0.53;;;;;;;;;;5099563;28;20435;-58
2023/06/28 13:37:52;;;;;;;0.70;0.70;;;;;;;;;;5063249;28;20466;-58
2023/06/28 13:40:22;;;;;;;0.50;0.50;;;;;;;;;;5086901;28;21090;-58
2023/06/28 13:42:49;;;;;;;0.40;0.40;;;;;;;;;;5073281;28;21270;-58
2023/06/28 13:45:19;;;;;;;0.70;0.70;;;;;;;;;;5080339;28;20425;-57
2023/06/28 13:47:48;;;;;;;1.40;0.50;;;;;;;;;;5078328;28;20537;-57
2023/06/28 13:50:19;;;;;;;1.45;0.52;;;;;;;;;;5084044;28;20430;-58
2023/06/28 13:52:49;;;;;;;0.65;0.65;;;;;;;;;;5080727;28;20771;-58
2023/06/28 13:55:16;;;;;;;0.65;0.55;;;;;;;;;;5090989;28;20429;-58
2023/06/28 13:57:43;;;;;;;0.68;0.68;;;;;;;;;;5077806;28;20419;-58
2023/06/28 14:00:10;;;;;;;0.57;0.57;;;;;;;;;;5092360;28;20512;-58
2023/06/28 14:02:41;;;;;;;0.50;0.50;;;;;;;;;;5076521;28;20463;-58
2023/06/28 14:05:09;;;;;;;0.50;0.50;;;;;;;;;;5097529;28;20423;-58
2023/06/28 14:07:36;;;;;;;0.60;0.60;;;;;;;;;;5099578;28;20434;-58
2023/06/28 14:10:04;;;;;;;0.60;0.60;;;;;;;;;;5082686;28;20478;-57
2023/06/28 14:12:31;;;;;;;0.90;0.60;;;;;;;;;;5084052;28;20421;-58
2023/06/28 14:14:58;;;;;;;0.80;0.80;;;;;;;;;;5095973;28;20420;-58
2023/06/28 14:17:25;;;;;;;0.50;0.50;;;;;;;;;;5066767;28;20472;-57
2023/06/28 14:19:53;;;;;;;0.55;0.55;;;;;;;;;;5093673;28;20437;-58
2023/06/28 14:22:24;;;;;;;1.20;0.52;;;;;;;;;;5091230;28;20449;-58
2023/06/28 14:24:51;;;;;;;0.70;0.55;;;;;;;;;;5081911;28;20432;-57
2023/06/28 14:27:19;;;;;;;1.45;0.63;;;;;;;;;;5092248;28;20435;-58
2023/06/28 14:29:46;;;;;;;3.45;0.65;;;;;;;;;;5096013;28;20514;-57
2023/06/28 14:32:13;;;;;;;0.73;0.57;;;;;;;;;;5084985;28;20477;-57
2023/06/28 14:34:40;;;;;;;0.40;0.40;;;;;;;;;;5083103;28;20431;-57
2023/06/28 14:37:08;;;;;;;0.55;0.55;;;;;;;;;;5078978;28;20546;-57
2023/06/28 14:39:35;;;;;;;0.55;0.43;;;;;;;;;;5092461;28;20459;-57
2023/06/28 14:42:02;;;;;;;0.57;0.57;;;;;;;;;;5094833;28;20434;-57
2023/06/28 14:44:29;;;;;;;0.50;0.50;;;;;;;;;;5090410;28;20546;-57
2023/06/28 14:46:57;;;;;;;0.70;0.70;;;;;;;;;;5087347;28;20423;-57
2023/06/28 14:49:24;;;;;;;1.20;0.60;;;;;;;;;;5110524;28;20424;-57
2023/06/28 14:51:54;;;;;;;0.60;0.60;;;;;;;;;;5072212;28;20816;-57